Terminal Aerodrome Forecast
Issued by NWS

Home | Current Version | Previous Version | Graphics & Text | Print | Product List | Glossary On
Versions: 1 2 3 4 5 6 7 8 9 10 11 12 13 14 15 16 17 18 19 20 21 22 23 24 25 26 27 28 29 30
000
FTUS43 KGRB 050520
TAFRHI
TAF
KRHI 050520Z 0506/0606 01005KT P6SM SKC
     FM050800 34007KT P6SM FEW100 SCT200
     FM051600 29006KT P6SM SCT100 SCT250
     FM060000 24005KT P6SM SCT250=

USA.gov is the U.S. government's official web portal to all federal, state and local government web resources and services.